CheckWX is a tool to help pilots better visualize weather data.  It is not intended as a substitute for an official pre-flight weather briefing.

05:49:54 UTC

KSHV TAF
Shreveport Regional Airport
Shreveport, Louisiana, USA
KSHV 010539Z 0106/0206 08003KT P6SM BKN250 FM011700 10007KT P6SM FEW050 BKN250 FM020000 10004KT P6SM SCT250

Jun-1@
06:00 UTC

Jun-1 @ 06:00 UTC

Jun-1@
17:00 UTC

Jun-1 @ 17:00 UTC

TAF KSHV 010539Z 0106/0206 08003KT P6SM BKN250

Expired

Wind
  • 080° at 3 KTS
Cloud Levels
  • Broken at 25,000' AGL

Jun-1@
17:00 UTC

Jun-1 @ 17:00 UTC

Jun-2@
00:00 UTC

Jun-2 @ 00:00 UTC

FM011700 10007KT P6SM FEW050 BKN250

Expired

Wind
  • 100° at 7 KTS
Cloud Levels
  • Few at 5,000' AGL
  • Broken at 25,000' AGL

Jun-2@
00:00 UTC

Jun-2 @ 00:00 UTC

Jun-2@
06:00 UTC

Jun-2 @ 06:00 UTC

FM020000 10004KT P6SM SCT250

From

From Standard forecast or significant change

Wind
  • 100° at 4 KTS
Cloud Levels
  • Scattered at 25,000' AGL